Time;durP1;ratioP1;P1;durP2;ratioP2;P2;SDS_P1;SDS_P2;PMS_P1;PMS_P2;Temp;Humidity;BMP_temperature;BMP_pressure;BME280_temperature;BME280_humidity;BME280_pressure;Samples;Min_cycle;Max_cycle;Signal;HPM_P1;HPM_P2
2023/05/07 00:00:26;;;;;;;19.65;17.83;;;;;;;14.17;100.00;101552.09;1047948;28;20398;-80
2023/05/07 00:00:59;;;;;;;21.63;19.40;;;;;;;14.20;100.00;101550.81;1044249;28;20071;-80
2023/05/07 00:01:31;;;;;;;19.77;17.95;;;;;;;14.17;100.00;101551.28;1047679;28;20143;-79
2023/05/07 00:02:03;;;;;;;20.13;18.17;;;;;;;14.19;100.00;101557.22;1044631;28;20041;-79
2023/05/07 00:02:35;;;;;;;20.05;18.15;;;;;;;14.00;100.00;101553.72;1046616;28;20167;-79
2023/05/07 00:03:07;;;;;;;22.23;19.88;;;;;;;13.98;100.00;101550.44;1051758;28;20036;-79
2023/05/07 00:03:39;;;;;;;20.25;18.17;;;;;;;14.01;100.00;101546.50;1047723;28;20057;-80
2023/05/07 00:04:11;;;;;;;18.48;16.75;;;;;;;13.97;100.00;101550.66;1048310;28;20498;-79
2023/05/07 00:04:43;;;;;;;19.40;17.55;;;;;;;13.98;100.00;101544.28;1048531;28;20040;-79
2023/05/07 00:05:15;;;;;;;19.02;17.13;;;;;;;13.96;100.00;101543.66;1051961;28;20043;-79
2023/05/07 00:05:47;;;;;;;18.85;16.88;;;;;;;13.88;100.00;101547.44;1052365;28;20136;-79
2023/05/07 00:06:19;;;;;;;16.88;15.18;;;;;;;13.85;100.00;101540.66;1051988;28;20578;-79
2023/05/07 00:06:51;;;;;;;17.17;15.68;;;;;;;13.83;100.00;101547.28;1047838;28;20040;-79
2023/05/07 00:07:22;;;;;;;18.33;16.55;;;;;;;13.77;100.00;101543.63;1047675;28;20047;-79
2023/05/07 00:07:54;;;;;;;18.55;16.75;;;;;;;13.78;100.00;101545.28;1047878;28;20045;-80
2023/05/07 00:08:27;;;;;;;18.25;16.33;;;;;;;13.82;100.00;101542.97;1048313;28;20040;-79
2023/05/07 00:09:00;;;;;;;17.55;15.85;;;;;;;13.80;100.00;101545.06;1047484;28;20045;-79
2023/05/07 00:09:32;;;;;;;20.40;16.38;;;;;;;13.79;100.00;101548.78;1048725;28;20044;-79
2023/05/07 00:10:06;;;;;;;17.67;16.08;;;;;;;13.97;100.00;101545.28;1048200;28;20048;-80
2023/05/07 00:10:37;;;;;;;18.40;16.65;;;;;;;13.87;100.00;101540.44;1047885;28;20534;-79
2023/05/07 00:11:10;;;;;;;17.63;15.95;;;;;;;13.88;100.00;101547.44;1047479;28;20044;-79
2023/05/07 00:11:41;;;;;;;17.25;15.55;;;;;;;13.98;100.00;101544.28;1044252;28;20037;-79
2023/05/07 00:12:13;;;;;;;17.40;15.80;;;;;;;13.98;100.00;101539.75;1048627;28;20089;-79
2023/05/07 00:12:44;;;;;;;18.55;16.80;;;;;;;13.97;100.00;101539.94;1045617;28;20047;-79
2023/05/07 00:13:16;;;;;;;25.40;17.23;;;;;;;13.86;100.00;101539.63;1039663;28;20052;-79
2023/05/07 00:13:48;;;;;;;18.02;16.35;;;;;;;13.98;100.00;101539.75;1039425;28;20531;-79
2023/05/07 00:14:20;;;;;;;17.38;15.77;;;;;;;14.05;100.00;101537.81;1040376;28;20041;-79
2023/05/07 00:14:52;;;;;;;18.17;16.35;;;;;;;13.92;100.00;101544.09;1044444;28;20040;-79
2023/05/07 00:15:23;;;;;;;18.77;16.77;;;;;;;13.84;100.00;101536.34;1051995;28;20055;-79
2023/05/07 00:15:55;;;;;;;18.70;17.00;;;;;;;13.86;100.00;101539.63;1052342;28;20047;-79
2023/05/07 00:16:27;;;;;;;17.17;15.55;;;;;;;14.00;100.00;101545.69;1052159;28;20063;-79
2023/05/07 00:16:58;;;;;;;17.70;16.10;;;;;;;14.17;100.00;101540.56;1051800;28;20144;-79
2023/05/07 00:17:30;;;;;;;18.30;16.40;;;;;;;14.26;100.00;101543.78;1052037;28;20428;-79
2023/05/07 00:18:02;;;;;;;17.90;16.10;;;;;;;14.22;100.00;101540.69;1047646;28;20051;-79
2023/05/07 00:18:34;;;;;;;19.25;17.33;;;;;;;14.25;100.00;101539.47;1047739;28;20040;-79
2023/05/07 00:19:05;;;;;;;18.70;16.33;;;;;;;14.20;100.00;101540.09;1051643;28;20051;-79
2023/05/07 00:19:37;;;;;;;16.95;15.18;;;;;;;14.20;100.00;101545.47;1047374;28;20379;-79
2023/05/07 00:20:09;;;;;;;19.30;17.40;;;;;;;14.03;100.00;101539.88;1040013;28;20045;-80
2023/05/07 00:20:41;;;;;;;19.88;17.85;;;;;;;14.11;100.00;101541.44;1039164;28;20064;-79
2023/05/07 00:21:13;;;;;;;19.00;17.23;;;;;;;14.03;100.00;101544.44;1040310;28;20048;-79
2023/05/07 00:21:44;;;;;;;20.00;17.90;;;;;;;13.99;100.00;101540.56;1040401;28;20052;-79
2023/05/07 00:22:16;;;;;;;18.15;16.23;;;;;;;13.91;100.00;101538.97;1047858;28;20040;-79
2023/05/07 00:22:48;;;;;;;17.13;15.52;;;;;;;13.87;100.00;101538.59;1052140;28;20043;-79
2023/05/07 00:23:19;;;;;;;18.08;16.35;;;;;;;13.93;100.00;101545.72;1051871;28;20051;-79
2023/05/07 00:23:51;;;;;;;17.67;16.08;;;;;;;14.02;100.00;101543.59;1052035;28;20386;-79
2023/05/07 00:24:22;;;;;;;19.55;17.83;;;;;;;13.99;100.00;101544.06;1052431;28;20402;-79
2023/05/07 00:24:54;;;;;;;19.77;17.70;;;;;;;13.95;100.00;101547.38;1049716;28;20043;-80
2023/05/07 00:25:25;;;;;;;19.50;17.02;;;;;;;13.92;100.00;101544.09;1052058;28;20040;-80
2023/05/07 00:25:57;;;;;;;18.60;16.80;;;;;;;13.92;100.00;101546.78;1047566;28;20048;-79
2023/05/07 00:26:29;;;;;;;21.13;16.92;;;;;;;13.89;100.00;101544.53;1047848;28;20040;-79
2023/05/07 00:27:00;;;;;;;18.00;16.35;;;;;;;13.92;100.00;101543.28;1043359;28;20037;-79
2023/05/07 00:27:32;;;;;;;18.85;17.17;;;;;;;13.93;100.00;101550.28;1044349;28;20048;-79
2023/05/07 00:28:04;;;;;;;18.33;16.63;;;;;;;13.91;100.00;101542.47;1047475;28;20498;-79
2023/05/07 00:28:35;;;;;;;18.67;16.88;;;;;;;13.90;100.00;101546.19;1048118;28;20037;-79
2023/05/07 00:29:07;;;;;;;19.23;17.33;;;;;;;13.87;100.00;101546.63;1051592;28;20040;-79
2023/05/07 00:29:38;;;;;;;19.60;17.80;;;;;;;13.97;100.00;101550.66;1047178;28;20041;-79
2023/05/07 00:30:11;;;;;;;18.63;16.90;;;;;;;14.12;100.00;101543.91;1043829;28;20041;-80
2023/05/07 00:30:42;;;;;;;19.88;18.08;;;;;;;14.20;100.00;101542.78;1035603;28;20079;-79
2023/05/07 00:31:14;;;;;;;19.48;17.80;;;;;;;14.20;100.00;101543.59;1035667;28;20133;-79
2023/05/07 00:31:45;;;;;;;21.33;17.73;;;;;;;14.14;100.00;101546.34;1039453;28;20045;-79
2023/05/07 00:32:17;;;;;;;20.55;18.67;;;;;;;14.03;100.00;101545.25;1039451;28;20073;-79
2023/05/07 00:32:50;;;;;;;17.98;16.27;;;;;;;14.01;100.00;101541.16;1043995;28;20140;-79
2023/05/07 00:33:22;;;;;;;18.80;16.95;;;;;;;13.95;100.00;101542.00;1048716;28;20520;-79
2023/05/07 00:33:54;;;;;;;19.48;17.48;;;;;;;14.00;100.00;101542.19;1051781;28;20540;-79
2023/05/07 00:34:25;;;;;;;19.08;17.23;;;;;;;14.06;100.00;101543.97;1051951;28;20047;-79
2023/05/07 00:34:57;;;;;;;19.02;17.42;;;;;;;14.11;100.00;101546.81;1052089;28;20378;-79
2023/05/07 00:35:29;;;;;;;18.50;17.00;;;;;;;14.20;100.00;101540.09;1051761;28;20051;-79
2023/05/07 00:36:01;;;;;;;19.20;17.40;;;;;;;14.19;100.00;101543.81;1047589;28;20055;-79
2023/05/07 00:36:33;;;;;;;17.40;15.80;;;;;;;14.18;100.00;101536.84;1047427;28;20040;-79
2023/05/07 00:37:07;;;;;;;17.50;15.98;;;;;;;14.09;100.00;101544.34;1043885;28;20120;-79
2023/05/07 00:37:38;;;;;;;19.42;17.67;;;;;;;14.07;100.00;101537.59;1040787;28;20041;-79
2023/05/07 00:38:10;;;;;;;18.77;16.77;;;;;;;14.12;100.00;101541.22;1043088;28;20140;-79
2023/05/07 00:38:42;;;;;;;18.38;16.55;;;;;;;14.31;100.00;101543.91;1044192;28;20059;-79
2023/05/07 00:39:13;;;;;;;18.02;16.35;;;;;;;14.39;100.00;101539.06;1047377;28;20047;-79
2023/05/07 00:39:45;;;;;;;18.52;16.40;;;;;;;14.45;100.00;101535.50;1047940;28;20032;-79
2023/05/07 00:40:16;;;;;;;18.52;16.70;;;;;;;14.51;100.00;101531.09;1051286;28;20058;-79
2023/05/07 00:40:48;;;;;;;17.23;15.63;;;;;;;14.50;100.00;101530.28;1051963;28;20118;-79
2023/05/07 00:41:20;;;;;;;17.58;15.98;;;;;;;14.53;100.00;101529.06;1051828;28;20121;-79
2023/05/07 00:41:52;;;;;;;16.65;15.15;;;;;;;14.50;100.00;101530.28;1047392;28;20470;-79
2023/05/07 00:42:23;;;;;;;16.17;14.73;;;;;;;14.51;100.00;101531.94;1047451;28;20032;-79
2023/05/07 00:42:57;;;;;;;18.42;16.50;;;;;;;14.47;100.00;101525.38;1047838;28;20282;-79
2023/05/07 00:43:29;;;;;;;17.58;15.98;;;;;;;14.38;100.00;101525.91;1048265;28;20079;-79
2023/05/07 00:44:02;;;;;;;17.92;16.42;;;;;;;14.20;100.00;101532.06;1047546;28;20423;-79
2023/05/07 00:44:34;;;;;;;16.98;15.45;;;;;;;14.23;100.00;101529.75;1043630;28;20824;-79
2023/05/07 00:45:07;;;;;;;18.70;16.10;;;;;;;14.36;100.00;101526.13;1043691;28;20033;-79
2023/05/07 00:45:39;;;;;;;18.33;16.45;;;;;;;14.42;100.00;101527.06;1045102;28;20049;-79
2023/05/07 00:46:11;;;;;;;19.33;17.60;;;;;;;14.39;100.00;101532.88;1047876;28;20301;-79
2023/05/07 00:46:44;;;;;;;19.98;18.17;;;;;;;14.34;100.00;101525.53;1047746;28;20298;-80
2023/05/07 00:47:16;;;;;;;17.25;15.68;;;;;;;14.37;100.00;101524.25;1041202;28;20650;-79
2023/05/07 00:47:48;;;;;;;19.88;17.90;;;;;;;14.32;100.00;101527.63;1048174;28;20037;-79
2023/05/07 00:48:19;;;;;;;18.95;17.23;;;;;;;14.38;100.00;101526.72;1051795;28;20411;-79
2023/05/07 00:48:51;;;;;;;17.70;16.10;;;;;;;14.43;100.00;101521.53;1048624;28;20306;-79
2023/05/07 00:49:31;;;;;;;19.60;17.70;;;;;;;14.40;100.00;101519.25;1046721;28;20684;-79
2023/05/07 00:50:03;;;;;;;18.60;16.98;;;;;;;14.38;100.00;101526.72;1043875;28;20292;-79
2023/05/07 00:50:35;;;;;;;18.52;16.83;;;;;;;14.34;100.00;101517.50;1040827;28;20037;-79
2023/05/07 00:51:07;;;;;;;20.58;18.67;;;;;;;14.33;100.00;101518.53;1041119;28;20326;-79
2023/05/07 00:51:38;;;;;;;20.77;18.58;;;;;;;14.31;100.00;101523.31;1039652;28;20586;-79
2023/05/07 00:52:15;;;;;;;20.30;18.45;;;;;;;14.32;100.00;101516.06;1039445;28;20041;-79
2023/05/07 00:52:47;;;;;;;20.17;17.92;;;;;;;14.31;100.00;101512.59;1043466;28;20354;-79
2023/05/07 00:53:19;;;;;;;20.55;18.58;;;;;;;14.29;100.00;101514.66;1040238;28;20312;-79
2023/05/07 00:53:51;;;;;;;20.08;18.08;;;;;;;14.27;100.00;101511.41;1040689;28;20300;-79
2023/05/07 00:54:22;;;;;;;20.25;18.45;;;;;;;14.25;100.00;101513.47;1043436;28;20374;-79
2023/05/07 00:54:54;;;;;;;21.13;19.33;;;;;;;14.24;100.00;101511.81;1044146;28;20283;-79
2023/05/07 00:55:26;;;;;;;19.30;17.35;;;;;;;14.21;100.00;101510.41;1047853;28;20339;-79
2023/05/07 00:55:58;;;;;;;20.45;18.55;;;;;;;14.19;100.00;101519.72;1045491;28;20291;-79
2023/05/07 00:56:30;;;;;;;25.95;20.40;;;;;;;14.16;100.00;101512.13;1043261;28;20036;-79
2023/05/07 00:57:03;;;;;;;22.88;20.58;;;;;;;14.16;100.00;101512.13;1047979;28;21560;-79
2023/05/07 00:57:39;;;;;;;23.00;20.80;;;;;;;14.14;100.00;101514.22;1044246;28;20112;-79
2023/05/07 00:58:11;;;;;;;22.67;20.58;;;;;;;14.13;100.00;101515.25;1039581;28;20049;-79
2023/05/07 00:58:43;;;;;;;22.95;20.75;;;;;;;14.10;100.00;101507.66;1039120;28;20379;-79
2023/05/07 00:59:14;;;;;;;23.08;20.75;;;;;;;14.04;100.00;101509.38;1044021;28;20945;-79
2023/05/07 00:59:46;;;;;;;23.42;21.15;;;;;;;14.05;100.00;101512.88;1047690;28;20310;-79
2023/05/07 01:00:18;;;;;;;24.40;22.00;;;;;;;14.04;100.00;101508.56;1051175;28;20040;-79
2023/05/07 01:00:50;;;;;;;22.17;20.02;;;;;;;14.02;100.00;101500.75;1048011;28;20298;-79
2023/05/07 01:01:22;;;;;;;22.92;20.88;;;;;;;13.99;100.00;101516.44;1047405;28;20302;-79
2023/05/07 01:01:54;;;;;;;23.40;21.15;;;;;;;14.00;100.00;101499.34;1047792;28;20295;-79
2023/05/07 01:02:26;;;;;;;22.92;20.77;;;;;;;14.01;100.00;101509.00;1047065;28;20334;-79
2023/05/07 01:02:58;;;;;;;24.13;21.90;;;;;;;13.92;100.00;101503.09;1043691;28;20864;-79
2023/05/07 01:03:30;;;;;;;23.92;21.77;;;;;;;14.01;100.00;101503.66;1040093;28;20519;-79
2023/05/07 01:04:02;;;;;;;25.65;23.08;;;;;;;13.99;100.00;101495.84;1039289;28;20049;-79
2023/05/07 01:04:34;;;;;;;24.50;22.15;;;;;;;13.99;100.00;101495.84;1035645;28;20296;-79
2023/05/07 01:05:12;;;;;;;23.85;21.55;;;;;;;14.01;100.00;101492.94;1036315;28;20302;-79
2023/05/07 01:05:46;;;;;;;26.00;23.60;;;;;;;14.01;100.00;101499.13;1044609;28;20813;-79
2023/05/07 01:06:19;;;;;;;24.20;21.90;;;;;;;13.98;100.00;101490.72;1047741;28;20299;-79
2023/05/07 01:06:51;;;;;;;23.92;21.50;;;;;;;13.94;100.00;101487.63;1055203;27;20040;-79
2023/05/07 01:07:23;;;;;;;26.90;24.33;;;;;;;13.91;100.00;101488.91;1055899;28;20799;-80
2023/05/07 01:07:55;;;;;;;24.70;22.35;;;;;;;13.90;100.00;101487.25;1055515;28;20355;-79
2023/05/07 01:08:29;;;;;;;24.98;22.48;;;;;;;13.87;100.00;101485.03;1051329;28;20303;-79
2023/05/07 01:09:01;;;;;;;25.90;23.50;;;;;;;13.87;100.00;101479.66;1048731;28;20286;-79
2023/05/07 01:09:35;;;;;;;27.48;24.88;;;;;;;13.86;100.00;101478.03;1047277;28;20792;-79
2023/05/07 01:10:07;;;;;;;27.02;24.25;;;;;;;13.85;100.00;101479.06;1044681;28;20295;-80
2023/05/07 01:10:42;;;;;;;26.60;24.30;;;;;;;13.86;100.00;101477.22;1043259;28;20037;-79
2023/05/07 01:11:14;;;;;;;27.88;25.13;;;;;;;13.78;100.00;101478.34;1040534;28;20300;-79
2023/05/07 01:11:47;;;;;;;26.67;24.08;;;;;;;13.79;100.00;101481.81;1037285;28;20284;-79
2023/05/07 01:12:19;;;;;;;27.95;25.17;;;;;;;13.80;100.00;101480.78;1042929;28;20350;-79
2023/05/07 01:12:51;;;;;;;26.27;24.00;;;;;;;13.72;100.00;101484.59;1040823;28;20295;-79
2023/05/07 01:13:24;;;;;;;27.67;25.15;;;;;;;13.71;100.00;101488.31;1040137;28;20308;-79
2023/05/07 01:13:56;;;;;;;27.52;24.95;;;;;;;13.73;100.00;101486.22;1036143;28;20383;-79
2023/05/07 01:14:29;;;;;;;27.45;24.85;;;;;;;13.70;100.00;101480.50;1035810;28;20313;-79
2023/05/07 01:15:02;;;;;;;28.10;24.90;;;;;;;13.65;100.00;101478.44;1044137;28;20299;-79
2023/05/07 01:15:33;;;;;;;26.00;23.58;;;;;;;13.76;100.00;101480.41;1039257;28;20045;-79
2023/05/07 01:16:05;;;;;;;26.85;24.40;;;;;;;13.70;100.00;101486.66;1035405;28;20050;-79
2023/05/07 01:16:37;;;;;;;28.58;24.38;;;;;;;13.70;100.00;101481.31;1043229;28;20356;-79
2023/05/07 01:17:09;;;;;;;27.17;24.27;;;;;;;13.72;100.00;101483.75;1044196;28;20315;-79
2023/05/07 01:17:42;;;;;;;27.00;24.10;;;;;;;13.68;100.00;101486.03;1048736;28;20380;-79
2023/05/07 01:18:22;;;;;;;25.83;23.50;;;;;;;13.70;100.00;101481.31;1050229;28;20451;-79
2023/05/07 01:18:53;;;;;;;27.40;24.17;;;;;;;13.70;100.00;101486.66;1039220;28;20897;-79
2023/05/07 01:19:26;;;;;;;26.65;24.23;;;;;;;13.68;100.00;101486.03;1032794;28;20301;-79
2023/05/07 01:19:58;;;;;;;24.77;22.20;;;;;;;13.63;100.00;101491.25;1035441;28;20511;-79
2023/05/07 01:20:30;;;;;;;25.52;23.13;;;;;;;13.72;100.00;101489.94;1032724;28;20049;-79
2023/05/07 01:21:04;;;;;;;24.52;22.30;;;;;;;13.73;100.00;101491.56;1035973;28;20304;-79
2023/05/07 01:21:37;;;;;;;25.48;23.08;;;;;;;13.84;100.00;101498.88;1039084;28;20042;-79
2023/05/07 01:22:11;;;;;;;25.10;22.92;;;;;;;13.68;100.00;101494.06;1037222;28;20041;-79
2023/05/07 01:22:52;;;;;;;24.92;22.25;;;;;;;13.64;100.00;101492.06;1045403;28;20041;-79
2023/05/07 01:23:25;;;;;;;26.25;23.65;;;;;;;13.57;100.00;101490.25;1038970;28;20132;-79
2023/05/07 01:23:57;;;;;;;26.20;22.90;;;;;;;13.68;100.00;101494.06;1043209;28;20052;-80
2023/05/07 01:24:30;;;;;;;25.40;22.92;;;;;;;13.73;100.00;101496.94;1042685;28;20650;-79
2023/05/07 01:25:03;;;;;;;24.40;22.10;;;;;;;13.78;100.00;101498.94;1035816;28;20058;-79
2023/05/07 01:25:36;;;;;;;26.10;23.40;;;;;;;13.69;100.00;101490.34;1037121;28;20438;-79
2023/05/07 01:26:08;;;;;;;24.77;22.55;;;;;;;13.70;100.00;101493.88;1044002;28;20041;-80
2023/05/07 01:26:40;;;;;;;23.58;21.40;;;;;;;13.74;100.00;101497.75;1044341;28;20047;-79
2023/05/07 01:27:12;;;;;;;24.48;22.10;;;;;;;13.73;100.00;101491.56;1043174;28;20037;-79
2023/05/07 01:27:43;;;;;;;23.98;21.65;;;;;;;13.76;100.00;101496.47;1038766;28;20504;-79
2023/05/07 01:28:15;;;;;;;23.63;21.20;;;;;;;13.74;100.00;101503.09;1039503;28;20492;-80
2023/05/07 01:28:48;;;;;;;25.63;23.08;;;;;;;13.65;100.00;101494.50;1039099;28;20067;-80
2023/05/07 01:29:20;;;;;;;23.95;21.73;;;;;;;13.61;100.00;101501.34;1039103;28;20707;-80
2023/05/07 01:29:52;;;;;;;24.00;21.92;;;;;;;13.58;100.00;101496.44;1035443;28;20038;-80
2023/05/07 01:30:24;;;;;;;24.52;22.33;;;;;;;13.59;100.00;101495.41;1039315;28;20295;-80
2023/05/07 01:31:01;;;;;;;24.17;21.65;;;;;;;13.54;100.00;101490.72;1043921;28;20167;-78
2023/05/07 01:31:34;;;;;;;24.70;22.20;;;;;;;13.56;100.00;101493.16;1044517;28;20037;-78
2023/05/07 01:32:07;;;;;;;21.65;19.73;;;;;;;13.51;100.00;101493.00;1042750;28;20091;-80
2023/05/07 01:32:53;;;;;;;23.92;21.73;;;;;;;13.83;100.00;101496.41;1039864;28;20166;-80
2023/05/07 01:33:26;;;;;;;23.85;21.63;;;;;;;13.95;100.00;101493.81;1036617;28;20030;-79
2023/05/07 01:33:58;;;;;;;24.30;21.95;;;;;;;13.99;100.00;101495.84;1037735;28;20050;-79
2023/05/07 01:34:31;;;;;;;24.38;22.10;;;;;;;14.02;100.00;101499.94;1037552;28;20076;-79
2023/05/07 01:35:05;;;;;;;23.92;21.73;;;;;;;14.05;100.00;101496.81;1041142;28;20112;-79
2023/05/07 01:35:42;;;;;;;24.95;22.73;;;;;;;14.08;100.00;101493.69;1039488;28;20116;-79
2023/05/07 01:36:14;;;;;;;25.17;22.58;;;;;;;13.94;100.00;101498.34;1043448;28;20356;-79
2023/05/07 01:36:46;;;;;;;24.80;22.33;;;;;;;14.00;100.00;101485.94;1043122;28;20302;-79
2023/05/07 01:37:18;;;;;;;24.15;21.90;;;;;;;14.01;100.00;101495.63;1043086;28;20392;-79
2023/05/07 01:37:50;;;;;;;23.17;20.98;;;;;;;14.01;100.00;101500.97;1039507;28;20308;-79
2023/05/07 01:38:23;;;;;;;24.35;21.77;;;;;;;14.00;100.00;101496.66;1034918;28;20524;-79
2023/05/07 01:38:57;;;;;;;23.38;21.38;;;;;;;14.07;100.00;101497.41;1031417;28;20309;-79
2023/05/07 01:39:30;;;;;;;24.40;22.00;;;;;;;14.08;100.00;101499.03;1034657;28;20724;-79
2023/05/07 01:40:02;;;;;;;23.77;21.52;;;;;;;14.07;100.00;101492.84;1031246;28;20053;-79
2023/05/07 01:40:34;;;;;;;23.20;20.98;;;;;;;14.06;100.00;101496.56;1036195;28;20297;-79
2023/05/07 01:41:06;;;;;;;23.80;21.67;;;;;;;14.07;100.00;101497.41;1039538;28;20419;-79
2023/05/07 01:41:38;;;;;;;23.30;21.27;;;;;;;14.00;100.00;101496.66;1035724;28;20348;-79
2023/05/07 01:42:10;;;;;;;23.35;21.25;;;;;;;14.01;100.00;101488.41;1035774;28;20691;-79
2023/05/07 01:42:42;;;;;;;23.65;21.23;;;;;;;13.97;100.00;101489.03;1035266;28;20076;-79
2023/05/07 01:43:15;;;;;;;23.35;20.98;;;;;;;13.95;100.00;101488.44;1032154;28;20305;-80
2023/05/07 01:43:47;;;;;;;23.25;21.10;;;;;;;14.04;100.00;101487.13;1038786;28;20970;-79
2023/05/07 01:44:19;;;;;;;24.38;21.90;;;;;;;14.06;100.00;101491.22;1039994;28;20303;-79
2023/05/07 01:44:50;;;;;;;21.98;20.05;;;;;;;14.06;100.00;101490.41;1039089;28;20399;-79
2023/05/07 01:45:23;;;;;;;23.17;20.90;;;;;;;14.07;100.00;101494.72;1035361;28;20045;-79
2023/05/07 01:45:55;;;;;;;23.35;20.98;;;;;;;14.05;100.00;101494.94;1035541;28;20311;-80
2023/05/07 01:46:27;;;;;;;23.00;21.00;;;;;;;13.98;100.00;101493.38;1033202;28;20808;-79
2023/05/07 01:46:59;;;;;;;24.13;21.70;;;;;;;14.03;100.00;101496.22;1035949;28;20309;-79
2023/05/07 01:47:31;;;;;;;21.30;19.17;;;;;;;14.01;100.00;101485.72;1035629;28;20380;-80
2023/05/07 01:48:03;;;;;;;22.80;20.45;;;;;;;14.02;100.00;101494.56;1035927;28;20450;-79
2023/05/07 01:48:35;;;;;;;24.40;20.92;;;;;;;14.03;100.00;101490.84;1039855;28;20300;-79
2023/05/07 01:49:07;;;;;;;23.10;20.90;;;;;;;14.03;100.00;101496.22;1043806;28;20349;-79
2023/05/07 01:49:39;;;;;;;23.92;21.52;;;;;;;13.99;100.00;101490.47;1047988;28;20376;-79
2023/05/07 01:50:12;;;;;;;24.23;21.80;;;;;;;14.00;100.00;101496.66;1047668;28;20135;-79
2023/05/07 01:50:44;;;;;;;24.38;21.90;;;;;;;13.99;100.00;101492.34;1043029;28;20382;-79
2023/05/07 01:51:16;;;;;;;23.67;21.38;;;;;;;13.98;100.00;101491.53;1039103;28;20691;-79
2023/05/07 01:51:48;;;;;;;22.80;20.77;;;;;;;13.99;100.00;101495.03;1035175;28;20297;-79
2023/05/07 01:52:19;;;;;;;24.17;21.73;;;;;;;13.97;100.00;101491.72;1035331;28;20303;-79
2023/05/07 01:52:51;;;;;;;25.17;22.95;;;;;;;13.97;100.00;101494.41;1036043;28;20390;-79
2023/05/07 01:53:23;;;;;;;23.55;21.40;;;;;;;14.01;100.00;101499.13;1039877;28;20103;-79
2023/05/07 01:53:55;;;;;;;24.25;21.98;;;;;;;13.99;100.00;101495.84;1036712;28;20406;-79
2023/05/07 01:54:31;;;;;;;23.80;21.55;;;;;;;13.98;100.00;101496.06;1039457;28;20853;-79
2023/05/07 01:55:05;;;;;;;24.27;21.83;;;;;;;13.98;100.00;101493.38;1040010;28;20726;-79
2023/05/07 01:55:37;;;;;;;23.50;21.35;;;;;;;13.96;100.00;101495.44;1039143;28;20443;-80
2023/05/07 01:56:09;;;;;;;23.73;21.33;;;;;;;13.96;100.00;101495.44;1039113;28;20343;-79
2023/05/07 01:56:42;;;;;;;22.67;20.70;;;;;;;13.97;100.00;101497.94;1035936;28;21401;-79
2023/05/07 01:57:14;;;;;;;24.40;22.00;;;;;;;13.87;100.00;101498.41;1039904;28;20327;-79
2023/05/07 01:57:46;;;;;;;23.27;21.13;;;;;;;13.78;100.00;101489.03;1035147;28;20305;-79
2023/05/07 01:58:17;;;;;;;22.10;19.92;;;;;;;13.71;100.00;101493.66;1035315;28;20351;-79
2023/05/07 01:58:51;;;;;;;25.15;20.40;;;;;;;13.72;100.00;101499.81;1035430;28;20344;-79
2023/05/07 01:59:23;;;;;;;22.27;20.15;;;;;;;13.69;100.00;101495.69;1038740;28;20339;-80
2023/05/07 01:59:55;;;;;;;22.10;20.10;;;;;;;13.65;100.00;101499.88;1041029;28;20774;-80
2023/05/07 02:00:27;;;;;;;22.35;20.35;;;;;;;13.64;100.00;101495.56;1043464;28;20310;-80
2023/05/07 02:00:58;;;;;;;22.80;20.70;;;;;;;13.65;100.00;101499.88;1039938;28;20307;-80
2023/05/07 02:01:30;;;;;;;21.95;20.02;;;;;;;13.63;100.00;101498.44;1047339;28;20090;-80
2023/05/07 02:02:02;;;;;;;22.35;20.35;;;;;;;13.62;100.00;101500.31;1043921;28;20064;-79
2023/05/07 02:02:35;;;;;;;21.60;19.65;;;;;;;13.59;100.00;101498.06;1039893;28;20114;-80
2023/05/07 02:03:07;;;;;;;22.85;20.75;;;;;;;13.53;100.00;101496.28;1042325;28;20302;-79
2023/05/07 02:03:46;;;;;;;21.42;19.33;;;;;;;13.65;100.00;101499.88;1038406;28;20304;-79
2023/05/07 02:04:25;;;;;;;21.45;19.42;;;;;;;13.61;100.00;101504.03;1034503;28;20049;-80
2023/05/07 02:04:57;;;;;;;21.50;19.55;;;;;;;13.61;100.00;101504.03;1038679;28;20049;-80
2023/05/07 02:05:29;;;;;;;21.50;19.50;;;;;;;13.66;100.00;101504.19;1046133;28;20303;-80
2023/05/07 02:06:10;;;;;;;20.25;18.33;;;;;;;13.64;100.00;101500.91;1047249;28;20547;-80
2023/05/07 02:06:43;;;;;;;19.85;18.02;;;;;;;13.64;100.00;101506.25;1045397;28;20040;-80
2023/05/07 02:07:16;;;;;;;19.83;18.02;;;;;;;13.60;100.00;101507.75;1039120;28;20663;-79
2023/05/07 02:07:49;;;;;;;21.88;19.50;;;;;;;13.64;100.00;101503.59;1039696;28;20308;-80
2023/05/07 02:08:21;;;;;;;21.55;19.45;;;;;;;13.65;100.00;101507.91;1040973;28;20323;-80
2023/05/07 02:08:53;;;;;;;20.67;18.77;;;;;;;13.54;100.00;101500.59;1043416;28;20304;-79
2023/05/07 02:09:25;;;;;;;19.77;17.90;;;;;;;13.62;100.00;101502.97;1041748;28;20296;-80
2023/05/07 02:09:57;;;;;;;21.10;19.00;;;;;;;13.62;100.00;101505.66;1043608;28;20069;-79
2023/05/07 02:10:28;;;;;;;20.35;18.45;;;;;;;13.57;100.00;101498.28;1047111;28;20155;-80
2023/05/07 02:11:00;;;;;;;21.23;19.00;;;;;;;13.57;100.00;101502.84;1047728;28;20545;-79
2023/05/07 02:11:32;;;;;;;19.58;17.67;;;;;;;13.48;100.00;101506.84;1044078;28;20052;-80
2023/05/07 02:12:04;;;;;;;19.63;17.80;;;;;;;13.57;100.00;101498.28;1051240;28;20117;-80
2023/05/07 02:12:36;;;;;;;21.40;19.17;;;;;;;13.64;100.00;101498.22;1047345;28;20308;-80
2023/05/07 02:13:08;;;;;;;20.38;18.48;;;;;;;13.61;100.00;101504.84;1047535;28;20494;-80
2023/05/07 02:13:41;;;;;;;21.15;19.23;;;;;;;13.68;100.00;101510.13;1043111;28;20136;-80
2023/05/07 02:14:13;;;;;;;21.23;19.00;;;;;;;13.69;100.00;101509.09;1040262;28;20084;-79
2023/05/07 02:14:44;;;;;;;20.02;18.13;;;;;;;13.65;100.00;101505.22;1047544;28;20047;-80
2023/05/07 02:15:16;;;;;;;20.73;18.75;;;;;;;13.53;100.00;101507.81;1044027;28;20049;-79
2023/05/07 02:15:50;;;;;;;19.85;18.15;;;;;;;13.67;100.00;101508.50;1039304;28;20038;-79
2023/05/07 02:16:23;;;;;;;19.25;17.55;;;;;;;13.45;100.00;101507.28;1038946;28;20432;-79
2023/05/07 02:16:55;;;;;;;20.45;18.65;;;;;;;13.52;100.00;101506.16;1040043;28;20387;-80
2023/05/07 02:17:27;;;;;;;19.92;17.92;;;;;;;13.55;100.00;101510.25;1035532;28;20308;-80
2023/05/07 02:17:59;;;;;;;19.73;17.65;;;;;;;13.48;100.00;101514.88;1042544;28;20041;-80
2023/05/07 02:18:31;;;;;;;19.80;17.90;;;;;;;13.44;100.00;101519.03;1039368;28;20315;-80
2023/05/07 02:19:03;;;;;;;22.25;19.75;;;;;;;13.40;100.00;101507.09;1044395;28;20542;-80
2023/05/07 02:19:35;;;;;;;19.75;17.98;;;;;;;13.47;100.00;101510.56;1051316;28;20043;-80
2023/05/07 02:20:13;;;;;;;20.08;18.17;;;;;;;13.51;100.00;101503.72;1046968;28;20084;-80
2023/05/07 02:20:45;;;;;;;21.05;19.05;;;;;;;13.46;100.00;101511.59;1044368;28;20124;-80
2023/05/07 02:21:17;;;;;;;18.60;16.83;;;;;;;13.47;100.00;101505.19;1047148;28;20368;-80
2023/05/07 02:21:49;;;;;;;19.17;17.48;;;;;;;13.38;100.00;101504.63;1044782;28;20570;-80
2023/05/07 02:22:21;;;;;;;20.05;18.10;;;;;;;13.45;100.00;101501.91;1047407;28;20101;-80
2023/05/07 02:22:52;;;;;;;20.70;18.55;;;;;;;13.45;100.00;101504.59;1042849;28;20048;-80
2023/05/07 02:23:24;;;;;;;18.08;16.42;;;;;;;13.44;100.00;101505.63;1039705;28;20042;-80
2023/05/07 02:23:56;;;;;;;18.60;16.73;;;;;;;13.41;100.00;101498.84;1046505;28;20039;-80
2023/05/07 02:24:28;;;;;;;21.00;18.88;;;;;;;13.35;100.00;101504.25;1039417;28;20491;-80
2023/05/07 02:24:59;;;;;;;20.17;18.27;;;;;;;13.45;100.00;101507.28;1050276;28;20051;-80
2023/05/07 02:25:31;;;;;;;19.85;17.88;;;;;;;13.56;100.00;101501.19;1049167;28;20298;-80
2023/05/07 02:26:04;;;;;;;19.58;17.77;;;;;;;13.51;100.00;101501.03;1047411;28;20306;-80